Viejas (78, 358, 1458) Station Data

Red Flag Warning: No
Fire Weather Zone: 250
SDGE Region: Mountain Empire
Lat/Lon: 32.846/-116.704

Observations

Time Wind Speed/Gust Temp(F) RH Fuel Moist Fuel Temp(F) Dewpt(F) Tmax(F) Tmin(F) Accum Precip 10-min Precip SL Press(mb)
4/26 2:40am 42 2 G 4 45° 83% - - 40° 49.6° 43.6° - - 1015.0
4/26 2:30am 33 2 G 4 44° 82% - - 39° 49.6° 43.6° - - 1015.0
4/26 2:20am 73 4 G 5 45° 80% - - 40° 49.6° 44.1° - - 1015.0
4/26 2:10am 1 1 G 3 46° 82% - - 41° 49.6° 44.6° - - 1015.0
4/26 2:00am 120 1 G 2 46° 81% - - 40° 49.6° 44.7° - - 1015.0
4/26 1:50am 349 0 G 1 46° 83% - - 41° 49.6° 45.1° - - 1015.0
4/26 1:40am 342 1 G 2 45° 82% - - 40° 49.6° 45.1° - - 1015.0
4/26 1:30am 83 1 G 3 46° 82% - - 41° 49.6° 45.3° - - 1015.0
4/26 1:20am 16 1 G 3 46° 82% - - 41° 49.6° 45.3° - - 1015.0
4/26 1:10am 22 3 G 4 46° 82% - - 41° 49.6° 45.3° - - 1015.0
4/26 1:00am 31 3 G 4 46° 82% - - 41° 49.6° 45.3° - - 1015.0
4/26 12:50am 99 1 G 3 47° 80% - - 41° 49.6° 46.3° - - 1015.0
4/26 12:40am 54 1 G 2 48° 78% - - 41° 49.6° 46.6° - - 1015.0
4/26 12:30am 39 2 G 4 49° 79% - - 43° 49.6° 46.6° - - 1015.0
4/26 12:20am 23 2 G 4 49° 81% - - 43° 49.3° 46.6° - - 1015.0
4/26 12:10am 42 4 G 5 47° 82% - - 42° 48.4° 46.6° - - 1015.0
4/26 12:00am 44 4 G 7 47° 82% - - 42° 62.2° 45.1° - - 1015.0
4/25 11:50pm 52 5 G 7 46° 82% - - 41° 62.2° 45.1° - - 1016.0
4/25 11:40pm 54 4 G 5 48° 77% - - 41° 62.2° 45.6° - - 1015.0
4/25 11:30pm 47 3 G 5 49° 78% - - 43° 62.2° 46.4° - - 1015.0
4/25 11:20pm 26 2 G 3 48° 79% - - 42° 62.2° 46.4° - - 1015.0
4/25 11:10pm 25 2 G 4 48° 80% - - 43° 62.2° 46.4° - - 1015.0
4/25 11:00pm 58 2 G 3 48° 80% - - 42° 62.2° 46.4° - - 1016.0
4/25 10:50pm 41 4 G 5 47° 81% - - 42° 62.2° 46.4° - - 1016.0
4/25 10:40pm 59 3 G 5 49° 76% - - 42° 62.2° 46.8° - - 1016.0
4/25 10:30pm 38 1 G 3 50° 77% - - 43° 62.2° 48.5° - - 1016.0
4/25 10:20pm 2 1 G 2 50° 77% - - 43° 62.2° 48.5° - - 1016.0
4/25 10:10pm 284 1 G 2 49° 78% - - 42° 62.2° 48.5° - - 1016.0
4/25 10:00pm 105 0 G 2 49° 76% - - 42° 62.2° 48.5° - - 1016.0
4/25 9:50pm 333 0 G 2 50° 74% - - 42° 62.2° 48.7° - - 1016.0
4/25 9:40pm 19 1 G 2 51° 73% - - 42° 62.2° 50° - - 1015.0
4/25 9:30pm 26 2 G 3 52° 72% - - 43° 62.2° 50.2° - - 1015.0
4/25 9:20pm 18 1 G 3 52° 71% - - 43° 62.2° 50.2° - - 1015.0
4/25 9:10pm 301 1 G 3 52° 71% - - 43° 62.2° 50.2° - - 1015.0
4/25 9:00pm 245 2 G 2 52° 72% - - 43° 62.2° 50.2° - - 1015.0
4/25 8:50pm 120 0 G 1 52° 72% - - 43° 62.2° 50.2° - - 1015.0
4/25 8:40pm 35 0 G 1 53° 71% - - 44° 62.2° 50.2° - - 1014.0
4/25 8:30pm 17 1 G 3 53° 70% - - 43° 62.2° 50.2° - - 1014.0
4/25 8:20pm 338 1 G 3 53° 68% - - 43° 62.2° 50.2° - - 1014.0
4/25 8:10pm 121 1 G 3 54° 68% - - 43° 62.2° 50.2° - - 1014.0
4/25 8:00pm 88 2 G 4 54° 67% - - 44° 62.2° 50.2° - - 1013.0
4/25 7:50pm 22 2 G 5 55° 65% - - 44° 62.2° 50.2° - - 1013.0
4/25 7:40pm 302 5 G 9 55° 64% - - 43° 62.2° 50.2° - - 1013.0
4/25 7:30pm 264 6 G 9 55° 64% - - 43° 62.2° 50.2° - - 1013.0
4/25 7:20pm 268 7 G 11 56° 63% - - 44° 62.2° 50.2° - - 1013.0
4/25 7:10pm 276 7 G 11 56° 62% - - 44° 62.2° 50.2° - - 1013.0
4/25 7:00pm 267 8 G 12 57° 62% - - 44° 62.2° 50.2° - - 1013.0
4/25 6:50pm 258 8 G 12 57° 63% - - 44° 62.2° 50.2° - - 1013.0
4/25 6:40pm 259 8 G 12 57° 62% - - 44° 62.2° 50.2° - - 1013.0
4/25 6:30pm 267 6 G 12 58° 63% - - 45° 62.2° 50.2° - - 1012.0
4/25 6:20pm 252 9 G 14 57° 65% - - 46° 62.2° 50.2° - - 1012.0
4/25 6:10pm 238 10 G 13 57° 66% - - 46° 62.2° 50.2° - - 1012.0
4/25 6:00pm 252 10 G 14 58° 67% - - 47° 62.2° 50.2° - - 1012.0
4/25 5:50pm 241 10 G 16 58° 67% - - 47° 62.2° 50.2° - - 1012.0
4/25 5:40pm 242 11 G 15 58° 68% - - 47° 62.2° 50.2° - - 1012.0
4/25 5:30pm 241 11 G 15 58° 66% - - 47° 62.2° 50.2° - - 1012.0
4/25 5:20pm 246 11 G 16 58° 65% - - 47° 62.2° 50.2° - - 1012.0
4/25 5:10pm 243 11 G 18 58° 66% - - 47° 62.2° 50.2° - - 1012.0
4/25 5:00pm 247 10 G 17 58° 64% - - 46° 62.2° 50.2° - - 1012.0
4/25 4:50pm 252 9 G 14 59° 63% - - 46° 62.2° 50.2° - - 1012.0
4/25 4:40pm 242 10 G 14 59° 63% - - 46° 62.2° 50.2° - - 1012.0
4/25 4:30pm 246 10 G 14 59° 62% - - 46° 62.2° 50.2° - - 1012.0
4/25 4:20pm 245 10 G 15 59° 61% - - 46° 62.2° 50.2° - - 1012.0
4/25 4:10pm 252 9 G 17 60° 61% - - 46° 62.2° 50.2° - - 1012.0
4/25 4:00pm 262 9 G 13 60° 61% - - 46° 62.2° 50.2° - - 1012.0
4/25 3:50pm 247 10 G 16 60° 62% - - 47° 62.2° 50.2° - - 1012.0
4/25 3:40pm 242 11 G 17 59° 62% - - 47° 62.2° 50.2° - - 1012.0
4/25 3:30pm 236 10 G 15 59° 62% - - 47° 62.2° 50.2° - - 1012.0
4/25 3:20pm 231 10 G 16 59° 64% - - 47° 62.2° 50.2° - - 1012.0
4/25 3:10pm 226 9 G 16 59° 65% - - 47° 62.2° 50.2° - - 1012.0
4/25 3:00pm 225 11 G 15 59° 63% - - 47° 62.2° 50.2° - - 1012.0
4/25 2:50pm 238 8 G 13 60° 58% - - 45° 62.2° 50.2° - - 1012.0
4/25 2:40pm 256 9 G 13 61° 56% - - 45° 62.2° 50.2° - - 1012.0
4/25 2:30pm 267 9 G 15 61° 57% - - 45° 62.2° 50.2° - - 1013.0
4/25 2:20pm 244 8 G 14 60° 57% - - 45° 62.2° 50.2° - - 1013.0
4/25 2:10pm 257 9 G 16 61° 55% - - 45° 62.2° 50.2° - - 1013.0
4/25 2:00pm 272 7 G 12 61° 55% - - 45° 62.2° 50.2° - - 1013.0
4/25 1:50pm 273 9 G 15 61° 56% - - 45° 62.2° 50.2° - - 1013.0
4/25 1:40pm 250 8 G 16 61° 54% - - 45° 62.2° 50.2° - - 1013.0
4/25 1:30pm 272 7 G 14 61° 54% - - 45° 62.2° 50.2° - - 1013.0
4/25 1:20pm 268 7 G 15 61° 55% - - 44° 61.7° 50.2° - - 1013.0
4/25 1:10pm 271 7 G 13 60° 55% - - 44° 61.7° 50.2° - - 1013.0
4/25 1:00pm 278 8 G 14 60° 54% - - 43° 61.7° 50.2° - - 1013.0
4/25 12:50pm 265 7 G 14 61° 53% - - 43° 61.7° 50.2° - - 1013.0
4/25 12:40pm 273 7 G 14 61° 53% - - 43° 61.7° 50.2° - - 1013.0
4/25 12:30pm 264 8 G 15 61° 52% - - 43° 61.7° 50.2° - - 1013.0
4/25 12:20pm 257 7 G 16 61° 54% - - 44° 61.3° 50.2° - - 1013.0
4/25 12:10pm 244 9 G 15 60° 55% - - 44° 60.7° 50.2° - - 1013.0
4/25 12:00pm 222 7 G 13 60° 55% - - 44° 60.7° 50.2° - - 1013.0
4/25 11:50am 242 8 G 17 59° 55% - - 43° 60° 50.2° - - 1013.0
4/25 11:40am 255 10 G 16 59° 56% - - 43° 60° 50.2° - - 1013.0
4/25 11:30am 231 9 G 15 59° 55% - - 44° 60° 50.2° - - 1013.0
4/25 11:20am 262 8 G 15 59° 55% - - 43° 60° 50.2° - - 1013.0
4/25 11:10am 254 8 G 14 58° 56% - - 43° 60° 50.2° - - 1014.0
4/25 11:00am 244 7 G 14 59° 56% - - 43° 60° 50.2° - - 1014.0
4/25 10:50am 270 6 G 11 58° 57% - - 43° 59.2° 50.2° - - 1014.0
4/25 10:40am 239 7 G 12 58° 64% - - 45° 58.7° 50.2° - - 1014.0
4/25 10:30am 245 9 G 15 56° 65% - - 45° 57° 50.2° - - 1014.0
4/25 10:20am 242 8 G 13 57° 63% - - 44° 57° 50.2° - - 1014.0
4/25 10:10am 221 7 G 11 56° 63% - - 44° 56.8° 50.2° - - 1014.0
4/25 10:00am 230 8 G 12 55° 69% - - 45° 55.9° 50.2° - - 1014.0
4/25 9:50am 230 9 G 14 55° 68% - - 45° 55.9° 50.2° - - 1014.0
4/25 9:40am 240 7 G 12 55° 70% - - 45° 55.9° 50.2° - - 1014.0
4/25 9:30am 237 6 G 9 55° 67% - - 45° 55.9° 50.2° - - 1014.0
4/25 9:20am 229 5 G 8 55° 71% - - 45° 55.2° 50.2° - - 1014.0
4/25 9:10am 221 4 G 8 55° 71% - - 46° 55.2° 50.2° - - 1014.0
4/25 9:00am 239 4 G 8 54° 75% - - 46° 54.8° 50.2° - - 1014.0
4/25 8:50am 235 5 G 8 54° 74% - - 46° 54.4° 50.2° - - 1014.0
4/25 8:40am 211 3 G 7 54° 74% - - 46° 54.4° 50.2° - - 1014.0
4/25 8:30am 215 4 G 6 53° 77% - - 46° 53.9° 50.2° - - 1014.0
4/25 8:20am 233 3 G 5 53° 78% - - 46° 52.9° 50.2° - - 1014.0
4/25 8:10am 231 3 G 6 52° 78% - - 46° 52.6° 50.2° - - 1014.0
4/25 8:00am 225 2 G 4 52° 80% - - 46° 52.6° 50.2° - - 1014.0
4/25 7:50am 242 2 G 5 52° 81% - - 46° 52.3° 50.2° - - 1014.0
4/25 7:40am 230 4 G 5 52° 82% - - 46° 52° 50.2° - - 1014.0
4/25 7:30am 248 4 G 7 52° 82% - - 46° 51.9° 50.2° - - 1014.0
4/25 7:20am 231 4 G 6 52° 81% - - 46° 51.9° 50.2° - - 1013.0
4/25 7:10am 227 4 G 6 52° 81% - - 46° 51.9° 50.2° - - 1013.0
4/25 7:00am 233 4 G 6 52° 80% - - 46° 51.9° 50.2° - - 1013.0
4/25 6:50am 216 4 G 6 52° 80% - - 46° 51.9° 50.2° - - 1013.0
4/25 6:40am 241 4 G 6 52° 80% - - 46° 51.9° 50.2° - - 1013.0
4/25 6:30am 241 3 G 5 52° 79% - - 45° 51.8° 50.2° - - 1013.0
4/25 6:20am 226 3 G 4 52° 79% - - 45° 51.7° 50.2° - - 1013.0
4/25 6:10am 221 2 G 4 52° 79% - - 45° 51.7° 50.2° - - 1013.0
4/25 6:00am 206 1 G 2 52° 80% - - 46° 51.7° 50.2° - - 1013.0
4/25 5:50am 66 0 G 1 51° 81% - - 46° 51.7° 50.2° - - 1013.0
4/25 5:40am 318 1 G 3 51° 81% - - 46° 51.6° 50.2° - - 1013.0
4/25 5:30am 21 1 G 2 51° 83% - - 46° 51.6° 50.2° - - 1013.0
4/25 5:20am 85 1 G 3 51° 83% - - 46° 51.6° 50.2° - - 1013.0
4/25 5:10am 230 2 G 3 51° 84% - - 46° 51.6° 50.2° - - 1013.0
4/25 5:00am 247 1 G 2 51° 85% - - 46° 51.6° 50.2° - - 1013.0
4/25 4:50am 271 2 G 3 51° 86% - - 46° 51.6° 50.2° - - 1013.0
4/25 4:40am 248 3 G 5 50° 86% - - 46° 51.6° 50.2° - - 1013.0
4/25 4:30am 236 3 G 5 50° 86% - - 46° 51.6° 50.3° - - 1013.0
4/25 4:20am 229 4 G 7 51° 86% - - 47° 51.6° 50.3° - - 1013.0
4/25 4:10am 225 5 G 9 51° 87% - - 47° 51.6° 50.3° - - 1013.0
4/25 4:00am 224 6 G 9 51° 87% - - 47° 51.6° 50.3° - - 1013.0
4/25 3:50am 221 5 G 7 51° 87% - - 47° 51.6° 50.3° - - 1013.0
4/25 3:40am 223 5 G 9 51° 87% - - 47° 51.6° 50.3° - - 1013.0
4/25 3:30am 226 6 G 8 51° 86% - - 47° 51.6° 50.3° - - 1013.0
4/25 3:20am 222 6 G 10 51° 85% - - 47° 51.6° 50.3° - - 1013.0
4/25 3:10am 227 5 G 8 51° 83% - - 46° 51.6° 50.3° - - 1013.0
4/25 3:00am 212 6 G 9 51° 82% - - 46° 51.6° 50.3° - - 1013.0
4/25 2:50am 222 5 G 7 51° 81% - - 46° 51.6° 50.3° - - 1013.0
4/25 2:40am 217 4 G 7 51° 81% - - 46° 51.6° 50.3° - - 1013.0
4/25 2:30am 240 5 G 7 51° 81% - - 46° 51.6° 50.3° - - 1013.0
4/25 2:20am 244 5 G 7 51° 81% - - 46° 51.5° 50.3° - - 1013.0
4/25 2:10am 244 3 G 5 51° 81% - - 46° 51.5° 50.3° - - 1013.0
4/25 2:00am 228 3 G 5 51° 81% - - 45° 51.3° 50.3° - - 1013.0
4/25 1:50am 235 4 G 7 51° 82% - - 46° 51.2° 50.3° - - 1013.0
4/25 1:40am 226 5 G 8 51° 82% - - 46° 51.2° 50.3° - - 1013.0
4/25 1:30am 216 5 G 8 51° 82% - - 46° 51.2° 50.3° - - 1013.0
4/25 1:20am 220 6 G 8 51° 83% - - 46° 51.2° 50.3° - - 1014.0
4/25 1:10am 233 6 G 9 51° 84% - - 46° 51.2° 50.3° - - 1013.0
4/25 1:00am 232 7 G 10 51° 84% - - 46° 51.2° 50.3° - - 1013.0
4/25 12:50am 224 6 G 9 51° 84% - - 46° 51.2° 50.5° - - 1013.0
4/25 12:40am 204 5 G 8 51° 84% - - 46° 51.2° 50.8° - - 1013.0
4/25 12:30am 211 4 G 6 51° 83% - - 46° 51.2° 50.8° - - 1013.0
4/25 12:20am 196 5 G 9 51° 82% - - 46° 51.2° 50.8° - - 1013.0
4/25 12:10am 191 6 G 12 51° 82% - - 46° 51.2° 50.8° - - 1013.0
4/25 12:00am 201 6 G 9 51° 81% - - 45° 65.8° 38.9° - - 1014.0
4/24 11:50pm 238 6 G 10 51° 80% - - 45° 65.8° 38.9° - - 1014.0
4/24 11:40pm 245 8 G 12 51° 82% - - 46° 65.8° 38.9° - - 1014.0
4/24 11:30pm 245 9 G 15 51° 84% - - 46° 65.8° 38.9° - - 1014.0
4/24 11:20pm 226 7 G 10 51° 85% - - 47° 65.8° 38.9° - - 1014.0
4/24 11:10pm 237 7 G 12 51° 85% - - 47° 65.8° 38.9° - - 1014.0
4/24 11:00pm 232 8 G 13 51° 86% - - 47° 65.8° 38.9° - - 1014.0
4/24 10:50pm 230 6 G 10 51° 86% - - 47° 65.8° 38.9° - - 1014.0
4/24 10:40pm 225 5 G 9 51° 87% - - 48° 65.8° 38.9° - - 1014.0
4/24 10:30pm 219 4 G 6 51° 86% - - 47° 65.8° 38.9° - - 1014.0
4/24 10:20pm 222 4 G 5 51° 85% - - 47° 65.8° 38.9° - - 1014.0
4/24 10:10pm 238 4 G 5 51° 85% - - 47° 65.8° 38.9° - - 1014.0
4/24 10:00pm 229 4 G 5 52° 85% - - 47° 65.8° 38.9° - - 1014.0
4/24 9:50pm 223 4 G 5 52° 86% - - 48° 65.8° 38.9° - - 1014.0
4/24 9:40pm 228 4 G 5 52° 86% - - 48° 65.8° 38.9° - - 1014.0
4/24 9:30pm 226 3 G 5 52° 86% - - 48° 65.8° 38.9° - - 1014.0
4/24 9:20pm 235 4 G 6 52° 86% - - 48° 65.8° 38.9° - - 1014.0
4/24 9:10pm 228 4 G 5 52° 85% - - 48° 65.8° 38.9° - - 1014.0
4/24 9:00pm 232 4 G 6 53° 84% - - 48° 65.8° 38.9° - - 1014.0
4/24 8:50pm 231 5 G 7 53° 83% - - 48° 65.8° 38.9° - - 1014.0
4/24 8:40pm 223 4 G 6 54° 82% - - 48° 65.8° 38.9° - - 1014.0
4/24 8:30pm 213 3 G 5 54° 81% - - 48° 65.8° 38.9° - - 1014.0
4/24 8:20pm 228 3 G 5 54° 81% - - 48° 65.8° 38.9° - - 1014.0
4/24 8:10pm 213 4 G 5 54° 80% - - 48° 65.8° 38.9° - - 1013.0
4/24 8:00pm 214 4 G 6 54° 79% - - 48° 65.8° 38.9° - - 1013.0
4/24 7:50pm 210 4 G 7 54° 79% - - 48° 65.8° 38.9° - - 1013.0
4/24 7:40pm 220 5 G 8 54° 79% - - 48° 65.8° 38.9° - - 1013.0
4/24 7:30pm 214 6 G 9 55° 78% - - 48° 65.8° 38.9° - - 1013.0
4/24 7:20pm 227 6 G 9 55° 77% - - 48° 65.8° 38.9° - - 1013.0
4/24 7:10pm 232 5 G 8 55° 76% - - 48° 65.8° 38.9° - - 1013.0
4/24 7:00pm 225 6 G 9 56° 76% - - 48° 65.8° 38.9° - - 1013.0
4/24 6:50pm 224 6 G 10 56° 75% - - 48° 65.8° 38.9° - - 1013.0
4/24 6:40pm 225 8 G 12 56° 74% - - 48° 65.8° 38.9° - - 1013.0
4/24 6:30pm 227 9 G 13 57° 72% - - 48° 65.8° 38.9° - - 1013.0
4/24 6:20pm 233 10 G 14 57° 71% - - 48° 65.8° 38.9° - - 1013.0
4/24 6:10pm 231 10 G 13 58° 70% - - 48° 65.8° 38.9° - - 1013.0
4/24 6:00pm 224 7 G 11 58° 70% - - 48° 65.8° 38.9° - - 1013.0